sensor_id;sensor_type;location;lat;lon;timestamp;temperature;humidity
26964;DHT22;14521;48.148;-1.656;2023-12-22T00:00:51;18.90;95.00
26964;DHT22;14521;48.148;-1.656;2023-12-22T00:04:14;18.90;95.00
26964;DHT22;14521;48.148;-1.656;2023-12-22T00:07:36;18.90;94.90
26964;DHT22;14521;48.148;-1.656;2023-12-22T00:10:59;18.90;94.90
26964;DHT22;14521;48.148;-1.656;2023-12-22T00:14:21;18.90;95.00
26964;DHT22;14521;48.148;-1.656;2023-12-22T00:17:44;18.80;94.80
26964;DHT22;14521;48.148;-1.656;2023-12-22T00:21:10;18.80;94.90
26964;DHT22;14521;48.148;-1.656;2023-12-22T00:24:33;18.80;95.00
26964;DHT22;14521;48.148;-1.656;2023-12-22T00:27:55;18.80;95.00
26964;DHT22;14521;48.148;-1.656;2023-12-22T00:31:17;18.80;95.10
26964;DHT22;14521;48.148;-1.656;2023-12-22T00:34:40;18.80;95.10
26964;DHT22;14521;48.148;-1.656;2023-12-22T00:38:02;18.80;94.90
26964;DHT22;14521;48.148;-1.656;2023-12-22T00:41:25;18.70;95.10
26964;DHT22;14521;48.148;-1.656;2023-12-22T00:44:47;18.70;95.00
26964;DHT22;14521;48.148;-1.656;2023-12-22T00:48:09;18.70;94.90
26964;DHT22;14521;48.148;-1.656;2023-12-22T00:51:32;18.70;94.90
26964;DHT22;14521;48.148;-1.656;2023-12-22T00:54:54;18.70;94.80
26964;DHT22;14521;48.148;-1.656;2023-12-22T00:58:17;18.70;94.70
26964;DHT22;14521;48.148;-1.656;2023-12-22T01:01:39;18.70;94.80
26964;DHT22;14521;48.148;-1.656;2023-12-22T01:05:02;18.70;94.70
26964;DHT22;14521;48.148;-1.656;2023-12-22T01:08:24;18.70;94.60
26964;DHT22;14521;48.148;-1.656;2023-12-22T01:11:47;18.70;94.50
26964;DHT22;14521;48.148;-1.656;2023-12-22T01:15:28;18.70;94.60
26964;DHT22;14521;48.148;-1.656;2023-12-22T01:18:50;18.70;94.60
26964;DHT22;14521;48.148;-1.656;2023-12-22T01:22:13;18.70;94.50
26964;DHT22;14521;48.148;-1.656;2023-12-22T01:25:35;18.70;94.60
26964;DHT22;14521;48.148;-1.656;2023-12-22T01:28:57;18.70;94.50
26964;DHT22;14521;48.148;-1.656;2023-12-22T01:32:20;18.70;94.40
26964;DHT22;14521;48.148;-1.656;2023-12-22T01:35:42;18.70;94.50
26964;DHT22;14521;48.148;-1.656;2023-12-22T01:39:04;18.70;94.50
26964;DHT22;14521;48.148;-1.656;2023-12-22T01:42:30;18.70;94.40
26964;DHT22;14521;48.148;-1.656;2023-12-22T01:45:56;18.60;94.40
26964;DHT22;14521;48.148;-1.656;2023-12-22T01:49:21;18.60;94.40
26964;DHT22;14521;48.148;-1.656;2023-12-22T01:52:44;18.70;94.40
26964;DHT22;14521;48.148;-1.656;2023-12-22T01:56:07;18.60;94.40
26964;DHT22;14521;48.148;-1.656;2023-12-22T01:59:31;18.60;94.30
26964;DHT22;14521;48.148;-1.656;2023-12-22T02:02:56;18.60;94.40
26964;DHT22;14521;48.148;-1.656;2023-12-22T02:06:19;18.60;94.40
26964;DHT22;14521;48.148;-1.656;2023-12-22T02:09:42;18.60;94.40
26964;DHT22;14521;48.148;-1.656;2023-12-22T02:13:05;18.60;94.30
26964;DHT22;14521;48.148;-1.656;2023-12-22T02:20:16;18.60;94.30
26964;DHT22;14521;48.148;-1.656;2023-12-22T02:23:39;18.60;94.30
26964;DHT22;14521;48.148;-1.656;2023-12-22T02:30:57;18.50;94.20
26964;DHT22;14521;48.148;-1.656;2023-12-22T02:34:23;18.60;94.20
26964;DHT22;14521;48.148;-1.656;2023-12-22T02:37:47;18.60;94.30
26964;DHT22;14521;48.148;-1.656;2023-12-22T02:41:10;18.60;94.30
26964;DHT22;14521;48.148;-1.656;2023-12-22T02:44:32;18.60;94.20
26964;DHT22;14521;48.148;-1.656;2023-12-22T02:47:55;18.50;94.20
26964;DHT22;14521;48.148;-1.656;2023-12-22T02:51:17;18.60;94.60
26964;DHT22;14521;48.148;-1.656;2023-12-22T02:54:39;18.50;94.20
26964;DHT22;14521;48.148;-1.656;2023-12-22T02:58:02;18.60;94.20
26964;DHT22;14521;48.148;-1.656;2023-12-22T03:01:24;18.60;94.20
26964;DHT22;14521;48.148;-1.656;2023-12-22T03:04:47;18.50;94.10
26964;DHT22;14521;48.148;-1.656;2023-12-22T03:08:09;18.60;94.10
26964;DHT22;14521;48.148;-1.656;2023-12-22T03:11:32;18.50;94.10
26964;DHT22;14521;48.148;-1.656;2023-12-22T03:14:54;18.50;94.10
26964;DHT22;14521;48.148;-1.656;2023-12-22T03:18:16;18.50;94.10
26964;DHT22;14521;48.148;-1.656;2023-12-22T03:21:39;18.50;94.20
26964;DHT22;14521;48.148;-1.656;2023-12-22T03:25:01;18.50;94.10
26964;DHT22;14521;48.148;-1.656;2023-12-22T03:28:23;18.50;94.00
26964;DHT22;14521;48.148;-1.656;2023-12-22T03:31:46;18.50;94.00
26964;DHT22;14521;48.148;-1.656;2023-12-22T03:35:09;18.50;94.10
26964;DHT22;14521;48.148;-1.656;2023-12-22T03:38:31;18.50;94.10
26964;DHT22;14521;48.148;-1.656;2023-12-22T03:41:53;18.50;94.10
26964;DHT22;14521;48.148;-1.656;2023-12-22T03:45:16;18.50;94.00
26964;DHT22;14521;48.148;-1.656;2023-12-22T03:48:38;18.50;93.90
26964;DHT22;14521;48.148;-1.656;2023-12-22T03:52:01;18.50;94.00
26964;DHT22;14521;48.148;-1.656;2023-12-22T03:55:23;18.40;94.00
26964;DHT22;14521;48.148;-1.656;2023-12-22T03:58:45;18.50;94.10
26964;DHT22;14521;48.148;-1.656;2023-12-22T04:02:08;18.40;94.00
26964;DHT22;14521;48.148;-1.656;2023-12-22T04:05:30;18.50;94.10
26964;DHT22;14521;48.148;-1.656;2023-12-22T04:08:52;18.50;94.00
26964;DHT22;14521;48.148;-1.656;2023-12-22T04:12:15;18.50;94.00
26964;DHT22;14521;48.148;-1.656;2023-12-22T04:15:37;18.50;94.40
26964;DHT22;14521;48.148;-1.656;2023-12-22T04:18:59;18.50;94.10
26964;DHT22;14521;48.148;-1.656;2023-12-22T04:22:21;18.40;94.00
26964;DHT22;14521;48.148;-1.656;2023-12-22T04:25:45;18.50;94.00
26964;DHT22;14521;48.148;-1.656;2023-12-22T04:29:08;18.50;94.00
26964;DHT22;14521;48.148;-1.656;2023-12-22T04:32:30;18.50;93.90
26964;DHT22;14521;48.148;-1.656;2023-12-22T04:35:52;18.50;94.00
26964;DHT22;14521;48.148;-1.656;2023-12-22T04:39:33;18.50;94.00
26964;DHT22;14521;48.148;-1.656;2023-12-22T04:42:55;18.50;94.00
26964;DHT22;14521;48.148;-1.656;2023-12-22T04:46:18;18.50;94.00
26964;DHT22;14521;48.148;-1.656;2023-12-22T04:49:40;18.40;94.00
26964;DHT22;14521;48.148;-1.656;2023-12-22T04:53:02;18.40;94.00
26964;DHT22;14521;48.148;-1.656;2023-12-22T04:56:26;18.50;94.10
26964;DHT22;14521;48.148;-1.656;2023-12-22T04:59:48;18.40;94.00
26964;DHT22;14521;48.148;-1.656;2023-12-22T05:03:11;18.40;94.00
26964;DHT22;14521;48.148;-1.656;2023-12-22T05:06:33;18.40;94.00
26964;DHT22;14521;48.148;-1.656;2023-12-22T05:09:55;18.40;94.00
26964;DHT22;14521;48.148;-1.656;2023-12-22T05:13:18;18.40;93.90
26964;DHT22;14521;48.148;-1.656;2023-12-22T05:16:40;18.40;93.90
26964;DHT22;14521;48.148;-1.656;2023-12-22T05:20:02;18.40;93.80
26964;DHT22;14521;48.148;-1.656;2023-12-22T05:23:25;18.40;94.00
26964;DHT22;14521;48.148;-1.656;2023-12-22T05:26:47;18.40;94.10
26964;DHT22;14521;48.148;-1.656;2023-12-22T05:30:10;18.40;94.10
26964;DHT22;14521;48.148;-1.656;2023-12-22T05:33:33;18.50;94.10
26964;DHT22;14521;48.148;-1.656;2023-12-22T05:36:55;18.50;94.10
26964;DHT22;14521;48.148;-1.656;2023-12-22T05:40:17;18.50;94.00
26964;DHT22;14521;48.148;-1.656;2023-12-22T05:43:40;18.40;94.30
26964;DHT22;14521;48.148;-1.656;2023-12-22T05:47:02;18.50;94.00
26964;DHT22;14521;48.148;-1.656;2023-12-22T05:50:25;18.50;94.00
26964;DHT22;14521;48.148;-1.656;2023-12-22T05:53:48;18.60;94.00
26964;DHT22;14521;48.148;-1.656;2023-12-22T05:57:10;18.60;94.00
26964;DHT22;14521;48.148;-1.656;2023-12-22T06:00:33;18.60;93.90
26964;DHT22;14521;48.148;-1.656;2023-12-22T06:03:56;18.70;93.90
26964;DHT22;14521;48.148;-1.656;2023-12-22T06:07:18;18.70;93.80
26964;DHT22;14521;48.148;-1.656;2023-12-22T06:10:41;18.70;93.80
26964;DHT22;14521;48.148;-1.656;2023-12-22T06:14:05;18.70;93.70
26964;DHT22;14521;48.148;-1.656;2023-12-22T06:17:28;18.80;93.80
26964;DHT22;14521;48.148;-1.656;2023-12-22T06:20:50;18.80;93.60
26964;DHT22;14521;48.148;-1.656;2023-12-22T06:24:12;18.80;93.60
26964;DHT22;14521;48.148;-1.656;2023-12-22T06:27:35;18.90;93.60
26964;DHT22;14521;48.148;-1.656;2023-12-22T06:30:59;18.90;93.50
26964;DHT22;14521;48.148;-1.656;2023-12-22T06:34:21;18.90;93.50
26964;DHT22;14521;48.148;-1.656;2023-12-22T06:37:43;18.90;93.50
26964;DHT22;14521;48.148;-1.656;2023-12-22T06:41:06;18.90;93.50
26964;DHT22;14521;48.148;-1.656;2023-12-22T06:44:28;18.90;93.80
26964;DHT22;14521;48.148;-1.656;2023-12-22T06:47:51;18.90;93.50
26964;DHT22;14521;48.148;-1.656;2023-12-22T06:51:18;19.00;93.50
26964;DHT22;14521;48.148;-1.656;2023-12-22T06:54:41;19.00;93.50
26964;DHT22;14521;48.148;-1.656;2023-12-22T06:58:04;19.00;93.50
26964;DHT22;14521;48.148;-1.656;2023-12-22T07:01:34;19.00;93.50
26964;DHT22;14521;48.148;-1.656;2023-12-22T07:05:29;19.00;93.50
26964;DHT22;14521;48.148;-1.656;2023-12-22T07:12:36;19.00;93.70
26964;DHT22;14521;48.148;-1.656;2023-12-22T07:15:58;18.90;92.90
26964;DHT22;14521;48.148;-1.656;2023-12-22T07:19:21;18.70;93.30
26964;DHT22;14521;48.148;-1.656;2023-12-22T07:22:44;18.80;94.00
26964;DHT22;14521;48.148;-1.656;2023-12-22T07:26:07;18.90;94.00
26964;DHT22;14521;48.148;-1.656;2023-12-22T07:29:33;19.10;93.90
26964;DHT22;14521;48.148;-1.656;2023-12-22T07:32:56;19.10;93.80
26964;DHT22;14521;48.148;-1.656;2023-12-22T07:36:18;19.10;94.20
26964;DHT22;14521;48.148;-1.656;2023-12-22T07:39:43;19.10;94.50
26964;DHT22;14521;48.148;-1.656;2023-12-22T07:43:07;19.10;94.40
26964;DHT22;14521;48.148;-1.656;2023-12-22T07:46:30;19.10;94.00
26964;DHT22;14521;48.148;-1.656;2023-12-22T07:49:53;18.90;93.50
26964;DHT22;14521;48.148;-1.656;2023-12-22T07:53:15;18.70;93.90
26964;DHT22;14521;48.148;-1.656;2023-12-22T07:56:37;18.70;94.00
26964;DHT22;14521;48.148;-1.656;2023-12-22T08:00:00;18.60;94.20
26964;DHT22;14521;48.148;-1.656;2023-12-22T08:03:33;18.60;94.30
26964;DHT22;14521;48.148;-1.656;2023-12-22T08:06:55;18.60;94.60
26964;DHT22;14521;48.148;-1.656;2023-12-22T08:10:18;18.60;94.60
26964;DHT22;14521;48.148;-1.656;2023-12-22T08:13:40;18.70;94.60
26964;DHT22;14521;48.148;-1.656;2023-12-22T08:17:03;18.60;94.50
26964;DHT22;14521;48.148;-1.656;2023-12-22T08:20:25;18.60;94.60
26964;DHT22;14521;48.148;-1.656;2023-12-22T08:23:54;18.60;94.50
26964;DHT22;14521;48.148;-1.656;2023-12-22T08:27:17;18.60;94.60
26964;DHT22;14521;48.148;-1.656;2023-12-22T08:30:40;18.60;95.10
26964;DHT22;14521;48.148;-1.656;2023-12-22T08:34:02;18.70;95.50
26964;DHT22;14521;48.148;-1.656;2023-12-22T08:37:24;18.90;95.00
26964;DHT22;14521;48.148;-1.656;2023-12-22T08:40:47;18.90;94.60
26964;DHT22;14521;48.148;-1.656;2023-12-22T08:44:11;19.00;94.60
26964;DHT22;14521;48.148;-1.656;2023-12-22T08:47:36;19.10;94.30
26964;DHT22;14521;48.148;-1.656;2023-12-22T08:50:58;19.10;94.10
26964;DHT22;14521;48.148;-1.656;2023-12-22T08:54:21;19.10;94.10
26964;DHT22;14521;48.148;-1.656;2023-12-22T08:57:43;19.10;94.00
26964;DHT22;14521;48.148;-1.656;2023-12-22T09:01:18;19.10;94.00
26964;DHT22;14521;48.148;-1.656;2023-12-22T09:04:41;19.10;94.00
26964;DHT22;14521;48.148;-1.656;2023-12-22T09:08:04;19.20;94.10
26964;DHT22;14521;48.148;-1.656;2023-12-22T09:11:26;19.20;94.40
26964;DHT22;14521;48.148;-1.656;2023-12-22T09:14:50;19.30;94.70
26964;DHT22;14521;48.148;-1.656;2023-12-22T09:18:12;19.40;94.60
26964;DHT22;14521;48.148;-1.656;2023-12-22T09:21:36;19.50;94.70
26964;DHT22;14521;48.148;-1.656;2023-12-22T09:24:58;19.60;94.80
26964;DHT22;14521;48.148;-1.656;2023-12-22T09:28:20;19.80;94.60
26964;DHT22;14521;48.148;-1.656;2023-12-22T09:31:43;19.90;94.20
26964;DHT22;14521;48.148;-1.656;2023-12-22T09:35:05;19.90;94.10
26964;DHT22;14521;48.148;-1.656;2023-12-22T09:38:28;19.90;94.10
26964;DHT22;14521;48.148;-1.656;2023-12-22T09:41:51;20.00;94.00
26964;DHT22;14521;48.148;-1.656;2023-12-22T09:45:16;20.00;94.00
26964;DHT22;14521;48.148;-1.656;2023-12-22T09:48:42;19.80;94.20
26964;DHT22;14521;48.148;-1.656;2023-12-22T09:52:06;19.50;94.50
26964;DHT22;14521;48.148;-1.656;2023-12-22T09:55:31;19.50;94.80
26964;DHT22;14521;48.148;-1.656;2023-12-22T09:58:54;19.50;94.70
26964;DHT22;14521;48.148;-1.656;2023-12-22T10:02:18;19.30;94.90
26964;DHT22;14521;48.148;-1.656;2023-12-22T10:05:40;19.00;95.50
26964;DHT22;14521;48.148;-1.656;2023-12-22T10:09:05;18.90;95.60
26964;DHT22;14521;48.148;-1.656;2023-12-22T10:12:29;18.90;95.80
26964;DHT22;14521;48.148;-1.656;2023-12-22T10:15:52;18.90;95.80
26964;DHT22;14521;48.148;-1.656;2023-12-22T10:19:17;18.90;95.90
26964;DHT22;14521;48.148;-1.656;2023-12-22T10:22:39;18.80;95.80
26964;DHT22;14521;48.148;-1.656;2023-12-22T10:26:01;18.70;95.80
26964;DHT22;14521;48.148;-1.656;2023-12-22T10:29:24;18.80;95.70
26964;DHT22;14521;48.148;-1.656;2023-12-22T10:32:46;18.80;95.90
26964;DHT22;14521;48.148;-1.656;2023-12-22T10:36:27;18.70;95.80
26964;DHT22;14521;48.148;-1.656;2023-12-22T10:39:52;18.70;95.50
26964;DHT22;14521;48.148;-1.656;2023-12-22T10:42:55;18.80;95.60
26964;DHT22;14521;48.148;-1.656;2023-12-22T10:45:57;18.70;95.50
26964;DHT22;14521;48.148;-1.656;2023-12-22T10:49:00;18.70;95.40
26964;DHT22;14521;48.148;-1.656;2023-12-22T10:52:02;18.70;95.30
26964;DHT22;14521;48.148;-1.656;2023-12-22T10:55:04;18.70;95.30
26964;DHT22;14521;48.148;-1.656;2023-12-22T10:58:07;18.70;95.30
26964;DHT22;14521;48.148;-1.656;2023-12-22T11:01:12;18.70;95.30
26964;DHT22;14521;48.148;-1.656;2023-12-22T11:04:18;18.70;95.30
26964;DHT22;14521;48.148;-1.656;2023-12-22T11:07:24;18.70;95.20
26964;DHT22;14521;48.148;-1.656;2023-12-22T11:10:30;18.70;95.40
26964;DHT22;14521;48.148;-1.656;2023-12-22T11:13:33;18.70;96.00
26964;DHT22;14521;48.148;-1.656;2023-12-22T11:16:37;18.70;95.80
26964;DHT22;14521;48.148;-1.656;2023-12-22T11:19:41;18.70;95.70
26964;DHT22;14521;48.148;-1.656;2023-12-22T11:22:45;18.70;95.60
26964;DHT22;14521;48.148;-1.656;2023-12-22T11:25:48;18.60;93.00
26964;DHT22;14521;48.148;-1.656;2023-12-22T11:28:53;18.60;94.60
26964;DHT22;14521;48.148;-1.656;2023-12-22T11:31:57;18.50;94.30
26964;DHT22;14521;48.148;-1.656;2023-12-22T11:35:02;18.50;94.70
26964;DHT22;14521;48.148;-1.656;2023-12-22T11:38:05;18.50;94.70
26964;DHT22;14521;48.148;-1.656;2023-12-22T11:41:12;18.40;94.60
26964;DHT22;14521;48.148;-1.656;2023-12-22T11:44:16;18.50;94.80
26964;DHT22;14521;48.148;-1.656;2023-12-22T11:47:22;18.50;94.80
26964;DHT22;14521;48.148;-1.656;2023-12-22T11:50:31;18.50;94.70
26964;DHT22;14521;48.148;-1.656;2023-12-22T11:53:33;18.60;95.00
26964;DHT22;14521;48.148;-1.656;2023-12-22T11:56:36;18.60;94.60
26964;DHT22;14521;48.148;-1.656;2023-12-22T11:59:38;18.50;94.40
26964;DHT22;14521;48.148;-1.656;2023-12-22T12:02:41;18.60;94.50
26964;DHT22;14521;48.148;-1.656;2023-12-22T12:05:43;18.60;94.50
26964;DHT22;14521;48.148;-1.656;2023-12-22T12:08:46;18.60;94.40
26964;DHT22;14521;48.148;-1.656;2023-12-22T12:14:58;18.60;94.30
26964;DHT22;14521;48.148;-1.656;2023-12-22T12:18:05;18.70;94.20
26964;DHT22;14521;48.148;-1.656;2023-12-22T12:21:08;18.70;94.20
26964;DHT22;14521;48.148;-1.656;2023-12-22T12:24:11;18.70;94.20
26964;DHT22;14521;48.148;-1.656;2023-12-22T12:27:18;18.70;94.40
26964;DHT22;14521;48.148;-1.656;2023-12-22T12:30:21;18.80;95.00
26964;DHT22;14521;48.148;-1.656;2023-12-22T12:33:23;18.90;95.40
26964;DHT22;14521;48.148;-1.656;2023-12-22T12:36:26;19.00;96.00
26964;DHT22;14521;48.148;-1.656;2023-12-22T12:39:30;18.90;96.20
26964;DHT22;14521;48.148;-1.656;2023-12-22T12:42:36;19.00;97.50
26964;DHT22;14521;48.148;-1.656;2023-12-22T12:45:40;19.30;97.40
26964;DHT22;14521;48.148;-1.656;2023-12-22T12:48:42;19.20;97.20
26964;DHT22;14521;48.148;-1.656;2023-12-22T12:51:47;19.10;97.50
26964;DHT22;14521;48.148;-1.656;2023-12-22T12:54:49;19.00;97.10
26964;DHT22;14521;48.148;-1.656;2023-12-22T12:57:54;19.00;97.20
26964;DHT22;14521;48.148;-1.656;2023-12-22T13:01:08;19.00;97.30
26964;DHT22;14521;48.148;-1.656;2023-12-22T13:04:21;18.90;97.20
26964;DHT22;14521;48.148;-1.656;2023-12-22T13:07:24;18.90;97.30
26964;DHT22;14521;48.148;-1.656;2023-12-22T13:10:27;18.90;97.20
26964;DHT22;14521;48.148;-1.656;2023-12-22T13:13:41;18.90;97.20
26964;DHT22;14521;48.148;-1.656;2023-12-22T13:16:43;18.80;97.30
26964;DHT22;14521;48.148;-1.656;2023-12-22T13:19:46;18.80;97.10
26964;DHT22;14521;48.148;-1.656;2023-12-22T13:22:48;18.80;96.80
26964;DHT22;14521;48.148;-1.656;2023-12-22T13:25:51;18.80;96.80
26964;DHT22;14521;48.148;-1.656;2023-12-22T13:28:57;18.80;96.30
26964;DHT22;14521;48.148;-1.656;2023-12-22T13:32:01;18.80;96.10
26964;DHT22;14521;48.148;-1.656;2023-12-22T13:35:04;18.80;96.60
26964;DHT22;14521;48.148;-1.656;2023-12-22T13:38:07;18.80;96.70
26964;DHT22;14521;48.148;-1.656;2023-12-22T13:41:09;18.80;95.30
26964;DHT22;14521;48.148;-1.656;2023-12-22T13:44:12;18.70;95.40
26964;DHT22;14521;48.148;-1.656;2023-12-22T13:47:29;18.70;95.60
26964;DHT22;14521;48.148;-1.656;2023-12-22T13:50:33;18.70;95.60
26964;DHT22;14521;48.148;-1.656;2023-12-22T13:53:47;18.60;95.60
26964;DHT22;14521;48.148;-1.656;2023-12-22T13:56:50;18.60;95.40
26964;DHT22;14521;48.148;-1.656;2023-12-22T13:59:53;18.60;95.50
26964;DHT22;14521;48.148;-1.656;2023-12-22T14:02:55;18.60;95.40
26964;DHT22;14521;48.148;-1.656;2023-12-22T14:05:58;18.60;95.50
26964;DHT22;14521;48.148;-1.656;2023-12-22T14:09:00;18.60;95.50
26964;DHT22;14521;48.148;-1.656;2023-12-22T14:12:02;18.60;95.50
26964;DHT22;14521;48.148;-1.656;2023-12-22T14:15:29;18.60;95.10
26964;DHT22;14521;48.148;-1.656;2023-12-22T14:19:05;18.60;96.50
26964;DHT22;14521;48.148;-1.656;2023-12-22T14:22:28;18.70;96.10
26964;DHT22;14521;48.148;-1.656;2023-12-22T14:25:50;18.70;95.50
26964;DHT22;14521;48.148;-1.656;2023-12-22T14:29:13;18.60;94.10
26964;DHT22;14521;48.148;-1.656;2023-12-22T14:32:35;18.50;94.40
26964;DHT22;14521;48.148;-1.656;2023-12-22T14:35:58;18.50;94.40
26964;DHT22;14521;48.148;-1.656;2023-12-22T14:39:20;18.50;94.30
26964;DHT22;14521;48.148;-1.656;2023-12-22T14:42:42;18.50;94.40
26964;DHT22;14521;48.148;-1.656;2023-12-22T14:46:04;18.50;94.40
26964;DHT22;14521;48.148;-1.656;2023-12-22T14:49:28;18.50;94.40
26964;DHT22;14521;48.148;-1.656;2023-12-22T14:52:50;18.50;94.80
26964;DHT22;14521;48.148;-1.656;2023-12-22T14:56:13;18.60;94.70
26964;DHT22;14521;48.148;-1.656;2023-12-22T14:59:35;18.70;95.10
26964;DHT22;14521;48.148;-1.656;2023-12-22T15:02:58;18.80;95.20
26964;DHT22;14521;48.148;-1.656;2023-12-22T15:06:20;18.80;95.30
26964;DHT22;14521;48.148;-1.656;2023-12-22T15:09:43;18.90;95.20
26964;DHT22;14521;48.148;-1.656;2023-12-22T15:13:06;18.90;95.20
26964;DHT22;14521;48.148;-1.656;2023-12-22T15:16:29;18.90;95.10
26964;DHT22;14521;48.148;-1.656;2023-12-22T15:19:51;18.90;95.10
26964;DHT22;14521;48.148;-1.656;2023-12-22T15:23:14;18.90;95.10
26964;DHT22;14521;48.148;-1.656;2023-12-22T15:26:36;19.00;95.10
26964;DHT22;14521;48.148;-1.656;2023-12-22T15:29:59;19.00;95.00
26964;DHT22;14521;48.148;-1.656;2023-12-22T15:33:21;19.00;94.10
26964;DHT22;14521;48.148;-1.656;2023-12-22T15:36:43;19.00;93.30
26964;DHT22;14521;48.148;-1.656;2023-12-22T15:40:06;19.00;93.90
26964;DHT22;14521;48.148;-1.656;2023-12-22T15:43:31;19.00;94.40
26964;DHT22;14521;48.148;-1.656;2023-12-22T15:46:55;19.00;94.80
26964;DHT22;14521;48.148;-1.656;2023-12-22T15:50:18;19.10;94.70
26964;DHT22;14521;48.148;-1.656;2023-12-22T15:53:40;19.10;94.60
26964;DHT22;14521;48.148;-1.656;2023-12-22T15:57:05;19.10;94.60
26964;DHT22;14521;48.148;-1.656;2023-12-22T16:00:28;19.10;94.70
26964;DHT22;14521;48.148;-1.656;2023-12-22T16:03:50;19.00;94.70
26964;DHT22;14521;48.148;-1.656;2023-12-22T16:07:14;19.00;93.40
26964;DHT22;14521;48.148;-1.656;2023-12-22T16:10:37;18.90;94.20
26964;DHT22;14521;48.148;-1.656;2023-12-22T16:13:59;18.90;94.70
26964;DHT22;14521;48.148;-1.656;2023-12-22T16:17:21;19.00;94.80
26964;DHT22;14521;48.148;-1.656;2023-12-22T16:20:43;19.00;94.70
26964;DHT22;14521;48.148;-1.656;2023-12-22T16:24:06;19.00;94.80
26964;DHT22;14521;48.148;-1.656;2023-12-22T16:27:28;19.00;94.70
26964;DHT22;14521;48.148;-1.656;2023-12-22T16:30:51;19.00;94.70
26964;DHT22;14521;48.148;-1.656;2023-12-22T16:34:14;19.00;94.70
26964;DHT22;14521;48.148;-1.656;2023-12-22T16:37:37;19.00;94.70
26964;DHT22;14521;48.148;-1.656;2023-12-22T16:41:02;19.00;95.10
26964;DHT22;14521;48.148;-1.656;2023-12-22T16:44:28;19.00;94.50
26964;DHT22;14521;48.148;-1.656;2023-12-22T16:47:51;19.00;94.40
26964;DHT22;14521;48.148;-1.656;2023-12-22T16:51:13;18.90;94.60
26964;DHT22;14521;48.148;-1.656;2023-12-22T16:54:36;19.00;95.00
26964;DHT22;14521;48.148;-1.656;2023-12-22T16:57:58;18.90;95.30
26964;DHT22;14521;48.148;-1.656;2023-12-22T17:01:21;18.90;95.50
26964;DHT22;14521;48.148;-1.656;2023-12-22T17:05:02;18.90;94.80
26964;DHT22;14521;48.148;-1.656;2023-12-22T17:08:25;18.90;93.00
26964;DHT22;14521;48.148;-1.656;2023-12-22T17:11:47;18.80;93.50
26964;DHT22;14521;48.148;-1.656;2023-12-22T17:14:49;18.90;93.80
26964;DHT22;14521;48.148;-1.656;2023-12-22T17:17:52;18.90;93.80
26964;DHT22;14521;48.148;-1.656;2023-12-22T17:20:54;19.00;94.20
26964;DHT22;14521;48.148;-1.656;2023-12-22T17:24:07;19.00;94.10
26964;DHT22;14521;48.148;-1.656;2023-12-22T17:27:09;19.00;94.30
26964;DHT22;14521;48.148;-1.656;2023-12-22T17:30:12;19.00;94.50
26964;DHT22;14521;48.148;-1.656;2023-12-22T17:33:14;19.00;94.90
26964;DHT22;14521;48.148;-1.656;2023-12-22T17:36:16;19.00;93.50
26964;DHT22;14521;48.148;-1.656;2023-12-22T17:39:20;19.00;95.70
26964;DHT22;14521;48.148;-1.656;2023-12-22T17:42:23;19.10;95.80
26964;DHT22;14521;48.148;-1.656;2023-12-22T17:45:25;19.10;95.70
26964;DHT22;14521;48.148;-1.656;2023-12-22T17:48:27;19.10;95.80
26964;DHT22;14521;48.148;-1.656;2023-12-22T17:51:29;19.10;96.00
26964;DHT22;14521;48.148;-1.656;2023-12-22T17:54:32;19.10;96.10
26964;DHT22;14521;48.148;-1.656;2023-12-22T17:57:35;19.10;96.30
26964;DHT22;14521;48.148;-1.656;2023-12-22T18:00:37;19.10;96.40
26964;DHT22;14521;48.148;-1.656;2023-12-22T18:03:39;19.20;97.50
26964;DHT22;14521;48.148;-1.656;2023-12-22T18:06:41;19.20;97.00
26964;DHT22;14521;48.148;-1.656;2023-12-22T18:09:43;19.20;97.40
26964;DHT22;14521;48.148;-1.656;2023-12-22T18:12:45;19.20;98.00
26964;DHT22;14521;48.148;-1.656;2023-12-22T18:15:48;19.20;97.70
26964;DHT22;14521;48.148;-1.656;2023-12-22T18:18:50;19.20;98.10
26964;DHT22;14521;48.148;-1.656;2023-12-22T18:22:11;19.20;99.00
26964;DHT22;14521;48.148;-1.656;2023-12-22T18:25:33;19.40;99.90
26964;DHT22;14521;48.148;-1.656;2023-12-22T18:28:56;19.40;99.60
26964;DHT22;14521;48.148;-1.656;2023-12-22T18:32:19;19.40;99.90
26964;DHT22;14521;48.148;-1.656;2023-12-22T18:35:41;19.40;99.90
26964;DHT22;14521;48.148;-1.656;2023-12-22T18:39:03;19.40;99.90
26964;DHT22;14521;48.148;-1.656;2023-12-22T18:42:25;19.40;99.60
26964;DHT22;14521;48.148;-1.656;2023-12-22T18:45:48;19.40;99.50
26964;DHT22;14521;48.148;-1.656;2023-12-22T18:49:10;19.40;99.80
26964;DHT22;14521;48.148;-1.656;2023-12-22T18:52:35;19.40;99.80
26964;DHT22;14521;48.148;-1.656;2023-12-22T18:55:58;19.40;99.40
26964;DHT22;14521;48.148;-1.656;2023-12-22T18:59:20;19.30;98.80
26964;DHT22;14521;48.148;-1.656;2023-12-22T19:02:43;19.30;99.40
26964;DHT22;14521;48.148;-1.656;2023-12-22T19:06:38;19.30;97.40
26964;DHT22;14521;48.148;-1.656;2023-12-22T19:10:01;19.10;95.50
26964;DHT22;14521;48.148;-1.656;2023-12-22T19:13:23;19.00;95.80
26964;DHT22;14521;48.148;-1.656;2023-12-22T19:16:46;18.90;96.10
26964;DHT22;14521;48.148;-1.656;2023-12-22T19:20:27;18.80;96.80
26964;DHT22;14521;48.148;-1.656;2023-12-22T19:23:49;18.80;96.80
26964;DHT22;14521;48.148;-1.656;2023-12-22T19:27:11;18.80;96.90
26964;DHT22;14521;48.148;-1.656;2023-12-22T19:30:34;18.80;96.70
26964;DHT22;14521;48.148;-1.656;2023-12-22T19:33:56;18.70;96.70
26964;DHT22;14521;48.148;-1.656;2023-12-22T19:37:19;18.80;96.70
26964;DHT22;14521;48.148;-1.656;2023-12-22T19:40:41;18.80;96.80
26964;DHT22;14521;48.148;-1.656;2023-12-22T19:44:05;18.70;96.60
26964;DHT22;14521;48.148;-1.656;2023-12-22T19:47:28;18.70;96.60
26964;DHT22;14521;48.148;-1.656;2023-12-22T19:50:50;18.60;96.50
26964;DHT22;14521;48.148;-1.656;2023-12-22T19:54:12;18.60;96.60
26964;DHT22;14521;48.148;-1.656;2023-12-22T19:57:35;18.50;96.50
26964;DHT22;14521;48.148;-1.656;2023-12-22T20:00:57;18.50;96.40
26964;DHT22;14521;48.148;-1.656;2023-12-22T20:04:19;18.60;96.90
26964;DHT22;14521;48.148;-1.656;2023-12-22T20:07:43;18.70;96.60
26964;DHT22;14521;48.148;-1.656;2023-12-22T20:11:05;18.60;97.20
26964;DHT22;14521;48.148;-1.656;2023-12-22T20:14:28;18.50;97.50
26964;DHT22;14521;48.148;-1.656;2023-12-22T20:17:50;18.50;97.40
26964;DHT22;14521;48.148;-1.656;2023-12-22T20:21:13;18.50;97.10
26964;DHT22;14521;48.148;-1.656;2023-12-22T20:24:35;18.40;96.90
26964;DHT22;14521;48.148;-1.656;2023-12-22T20:27:57;18.40;96.90
26964;DHT22;14521;48.148;-1.656;2023-12-22T20:31:20;18.30;96.80
26964;DHT22;14521;48.148;-1.656;2023-12-22T20:34:43;18.20;96.80
26964;DHT22;14521;48.148;-1.656;2023-12-22T20:38:05;18.30;96.70
26964;DHT22;14521;48.148;-1.656;2023-12-22T20:41:46;18.20;96.60
26964;DHT22;14521;48.148;-1.656;2023-12-22T20:45:09;18.40;96.50
26964;DHT22;14521;48.148;-1.656;2023-12-22T20:48:31;18.30;96.30